createdAt,value
2018-11-02T00:01:39.913Z,4.40
2018-11-02T00:04:10.316Z,4.77
2018-11-02T00:06:40.435Z,4.83
2018-11-02T00:09:10.404Z,4.13
2018-11-02T00:11:41.839Z,4.30
2018-11-02T00:14:12.688Z,4.43
2018-11-02T00:16:42.806Z,4.33
2018-11-02T00:19:13.765Z,3.70
2018-11-02T00:21:43.856Z,3.87
2018-11-02T00:24:14.019Z,4.17
2018-11-02T00:26:45.489Z,3.87
2018-11-02T00:29:15.577Z,3.97
2018-11-02T00:31:46.441Z,4.03
2018-11-02T00:34:19.011Z,4.30
2018-11-02T00:36:50.252Z,4.57
2018-11-02T00:39:20.357Z,4.70
2018-11-02T00:41:50.830Z,4.87
2018-11-02T00:44:21.336Z,4.00
2018-11-02T00:46:57.001Z,4.00
2018-11-02T00:49:27.308Z,4.20
2018-11-02T00:51:57.732Z,3.80
2018-11-02T00:54:27.885Z,4.20
2018-11-02T00:56:57.901Z,4.10
2018-11-02T00:59:27.395Z,4.40
2018-11-02T01:01:57.660Z,4.03
2018-11-02T01:04:27.734Z,3.47
2018-11-02T01:06:58.344Z,3.40
2018-11-02T01:09:28.410Z,3.60
2018-11-02T01:11:59.259Z,3.53
2018-11-02T01:14:30.291Z,6.60
2018-11-02T01:17:00.333Z,3.60
2018-11-02T01:19:36.047Z,4.00
2018-11-02T01:22:06.704Z,4.43
2018-11-02T01:24:36.741Z,3.90
2018-11-02T01:27:07.116Z,5.03
2018-11-02T01:29:37.198Z,4.00
2018-11-02T01:32:07.446Z,4.13
2018-11-02T01:34:37.522Z,4.47
2018-11-02T01:37:08.953Z,4.40
2018-11-02T01:39:39.676Z,3.97
2018-11-02T01:42:09.578Z,3.43
2018-11-02T01:44:40.142Z,4.17
2018-11-02T01:47:10.654Z,3.93
2018-11-02T01:50:01.418Z,4.13
2018-11-02T01:52:31.314Z,3.73
2018-11-02T01:55:01.866Z,3.70
2018-11-02T01:57:32.062Z,3.97
2018-11-02T02:00:03.644Z,3.40
2018-11-02T02:02:33.433Z,3.80
2018-11-02T02:05:03.600Z,3.60
2018-11-02T02:07:34.184Z,3.80
2018-11-02T02:10:05.278Z,3.93
2018-11-02T02:12:35.894Z,3.97
2018-11-02T02:15:07.993Z,5.17
2018-11-02T02:17:38.619Z,4.20
2018-11-02T02:20:08.855Z,3.90
2018-11-02T02:22:39.319Z,4.20
2018-11-02T02:25:09.494Z,3.40
2018-11-02T02:27:39.906Z,3.80
2018-11-02T02:30:13.461Z,4.30
2018-11-02T02:32:43.435Z,4.50
2018-11-02T02:35:13.649Z,4.40
2018-11-02T02:37:43.683Z,4.33
2018-11-02T02:40:14.972Z,4.47
2018-11-02T02:42:45.095Z,4.20
2018-11-02T02:45:15.039Z,5.30
2018-11-02T02:47:45.265Z,4.17
2018-11-02T02:50:19.219Z,3.80
2018-11-02T02:52:49.240Z,4.43
2018-11-02T02:55:18.688Z,4.60
2018-11-02T02:57:48.712Z,3.87
2018-11-02T03:00:19.132Z,4.83
2018-11-02T03:02:49.322Z,4.67
2018-11-02T03:05:19.161Z,4.10
2018-11-02T03:07:51.657Z,4.70
2018-11-02T03:10:21.774Z,4.63
2018-11-02T03:12:51.641Z,4.83
2018-11-02T03:15:22.265Z,4.80
2018-11-02T03:17:52.418Z,4.50
2018-11-02T03:20:22.668Z,5.20
2018-11-02T03:22:52.985Z,4.80
2018-11-02T03:25:23.015Z,4.90
2018-11-02T03:27:52.983Z,5.17
2018-11-02T03:30:22.743Z,4.87
2018-11-02T03:32:52.467Z,4.40
2018-11-02T03:35:21.524Z,4.00
2018-11-02T03:37:50.668Z,5.10
2018-11-02T03:40:19.939Z,4.97
2018-11-02T03:42:49.663Z,4.40
2018-11-02T03:45:18.891Z,4.40
2018-11-02T03:47:48.076Z,3.93
2018-11-02T03:50:17.760Z,4.17
2018-11-02T03:52:47.014Z,4.07
2018-11-02T03:55:16.305Z,4.60
2018-11-02T03:57:46.419Z,4.57
2018-11-02T04:00:15.777Z,4.60
2018-11-02T04:02:45.403Z,4.70
2018-11-02T04:05:14.608Z,5.20
2018-11-02T04:07:44.325Z,5.10
2018-11-02T04:10:13.793Z,4.50
2018-11-02T04:12:43.309Z,4.33
2018-11-02T04:15:13.481Z,4.77
2018-11-02T04:17:42.543Z,4.17
2018-11-02T04:20:11.792Z,4.80
2018-11-02T04:22:41.550Z,4.70
2018-11-02T04:25:11.368Z,4.47
2018-11-02T04:27:40.463Z,4.40
2018-11-02T04:30:09.720Z,4.20
2018-11-02T04:32:39.420Z,3.87
2018-11-02T04:35:09.241Z,4.57
2018-11-02T04:37:38.539Z,5.10
2018-11-02T04:40:07.968Z,4.43
2018-11-02T04:42:37.352Z,4.87
2018-11-02T04:45:06.763Z,3.80
2018-11-02T04:47:36.505Z,4.17
2018-11-02T04:50:07.339Z,4.30
2018-11-02T04:52:36.559Z,3.90
2018-11-02T04:55:06.467Z,3.93
2018-11-02T04:57:35.788Z,4.27
2018-11-02T05:00:06.975Z,3.87
2018-11-02T05:02:36.462Z,4.40
2018-11-02T05:05:06.059Z,4.33
2018-11-02T05:07:36.104Z,4.40
2018-11-02T05:10:06.801Z,4.70
2018-11-02T05:12:36.313Z,4.17
2018-11-02T05:15:06.048Z,4.40
2018-11-02T05:17:35.336Z,4.23
2018-11-02T05:20:07.152Z,4.50
2018-11-02T05:22:36.524Z,4.70
2018-11-02T05:25:08.584Z,4.80
2018-11-02T05:27:38.572Z,4.50
2018-11-02T05:30:09.179Z,4.80
2018-11-02T05:32:39.119Z,4.33
2018-11-02T05:35:08.591Z,4.47
2018-11-02T05:37:38.114Z,4.60
2018-11-02T05:40:08.039Z,4.23
2018-11-02T05:42:37.124Z,5.30
2018-11-02T05:45:07.592Z,4.77
2018-11-02T05:47:36.676Z,5.17
2018-11-02T05:50:08.269Z,5.17
2018-11-02T05:52:37.543Z,5.60
2018-11-02T05:55:10.201Z,5.33
2018-11-02T05:57:39.403Z,5.47
2018-11-02T06:00:09.079Z,6.07
2018-11-02T06:02:38.444Z,5.57
2018-11-02T06:05:09.727Z,5.47
2018-11-02T06:07:39.167Z,5.63
2018-11-02T06:10:09.536Z,5.70
2018-11-02T06:12:38.879Z,5.63
2018-11-02T06:15:08.999Z,5.80
2018-11-02T06:17:38.141Z,6.17
2018-11-02T06:20:08.470Z,5.50
2018-11-02T06:22:37.785Z,6.60
2018-11-02T06:25:07.249Z,5.90
2018-11-02T06:27:36.469Z,5.37
2018-11-02T06:30:06.590Z,5.37
2018-11-02T06:32:35.946Z,5.67
2018-11-02T06:35:05.963Z,5.53
2018-11-02T06:37:35.537Z,5.50
2018-11-02T06:40:05.028Z,4.80
2018-11-02T06:42:34.682Z,4.80
2018-11-02T06:45:04.236Z,6.45
2018-11-02T06:47:33.298Z,5.10
2018-11-02T06:50:02.467Z,6.30
2018-11-02T06:52:31.925Z,6.07
2018-11-02T06:55:01.187Z,7.27
2018-11-02T06:57:30.365Z,9.10
2018-11-02T06:59:59.994Z,8.63
2018-11-02T07:02:29.416Z,7.10
2018-11-02T07:04:58.511Z,6.00
2018-11-02T07:07:28.244Z,5.33
2018-11-02T07:09:58.646Z,4.67
2018-11-02T07:12:27.793Z,4.43
2018-11-02T07:14:56.939Z,4.43
2018-11-02T07:17:26.238Z,5.63
2018-11-02T07:19:55.449Z,4.33
2018-11-02T07:22:25.609Z,4.30
2018-11-02T07:24:55.707Z,5.13
2018-11-02T07:27:24.881Z,4.80
2018-11-02T07:29:54.249Z,4.93
2018-11-02T07:32:23.836Z,5.10
2018-11-02T07:34:54.468Z,4.90
2018-11-02T07:37:24.117Z,5.17
2018-11-02T07:39:53.503Z,5.13
2018-11-02T07:42:23.065Z,4.93
2018-11-02T07:44:53.308Z,6.07
2018-11-02T07:47:22.417Z,7.03
2018-11-02T07:49:52.708Z,6.37
2018-11-02T07:52:22.166Z,5.77
2018-11-02T07:54:51.241Z,6.17
2018-11-02T07:57:21.492Z,5.53
2018-11-02T07:59:52.399Z,5.43
2018-11-02T08:02:21.867Z,6.43
2018-11-02T08:04:51.339Z,6.07
2018-11-02T08:07:20.321Z,6.30
2018-11-02T08:09:49.562Z,12.27
2018-11-02T08:12:18.974Z,14.23
2018-11-02T08:14:48.623Z,10.53
2018-11-02T08:17:17.668Z,12.33
2018-11-02T08:19:46.811Z,11.30
2018-11-02T08:22:15.990Z,9.80
2018-11-02T08:24:46.046Z,8.43
2018-11-02T08:27:16.176Z,8.17
2018-11-02T08:29:45.740Z,7.03
2018-11-02T08:32:16.926Z,6.80
2018-11-02T08:34:46.728Z,7.50
2018-11-02T08:37:16.381Z,7.67
2018-11-02T08:39:46.281Z,6.50
2018-11-02T08:42:15.580Z,7.77
2018-11-02T08:44:47.807Z,6.93
2018-11-02T08:47:19.220Z,7.03
2018-11-02T08:49:48.808Z,6.37
2018-11-02T08:52:18.497Z,7.27
2018-11-02T08:54:48.107Z,8.03
2018-11-02T08:57:17.341Z,7.70
2018-11-02T08:59:46.530Z,7.33
2018-11-02T09:02:16.220Z,7.70
2018-11-02T09:04:45.727Z,7.77
2018-11-02T09:07:23.310Z,7.73
2018-11-02T09:09:58.918Z,7.87
2018-11-02T09:12:28.253Z,8.50
2018-11-02T09:14:57.659Z,7.60
2018-11-02T09:17:27.236Z,7.97
2018-11-02T09:19:57.234Z,8.77
2018-11-02T09:22:26.484Z,7.73
2018-11-02T09:24:55.779Z,9.10
2018-11-02T09:27:25.052Z,8.67
2018-11-02T09:29:54.545Z,9.53
2018-11-02T09:32:24.056Z,9.43
2018-11-02T09:34:53.495Z,9.83
2018-11-02T09:37:22.927Z,9.67
2018-11-02T09:39:52.379Z,7.93
2018-11-02T09:42:21.588Z,10.17
2018-11-02T09:44:53.436Z,8.53
2018-11-02T09:47:23.226Z,8.93
2018-11-02T09:49:52.389Z,8.20
2018-11-02T09:52:21.864Z,10.67
2018-11-02T09:54:51.256Z,9.03
2018-11-02T09:57:21.535Z,8.77
2018-11-02T09:59:50.995Z,9.40
2018-11-02T10:02:20.404Z,11.57
2018-11-02T10:04:49.741Z,15.43
2018-11-02T10:07:19.181Z,9.20
2018-11-02T10:09:48.305Z,9.37
2018-11-02T10:12:17.545Z,9.80
2018-11-02T10:14:46.955Z,10.00
2018-11-02T10:17:16.449Z,8.57
2018-11-02T10:19:45.779Z,9.30
2018-11-02T10:22:15.216Z,12.67
2018-11-02T10:24:45.015Z,10.30
2018-11-02T10:27:14.303Z,8.77
2018-11-02T10:29:43.528Z,9.93
2018-11-02T10:32:12.872Z,10.03
2018-11-02T10:34:42.191Z,12.17
2018-11-02T10:37:12.084Z,13.13
2018-11-02T10:39:42.450Z,11.30
2018-11-02T10:42:12.412Z,9.63
2018-11-02T10:44:48.009Z,8.90
2018-11-02T10:47:18.461Z,8.97
2018-11-02T10:49:48.155Z,9.33
2018-11-02T10:52:19.504Z,9.63
2018-11-02T10:54:49.274Z,9.93
2018-11-02T10:57:18.777Z,9.43
2018-11-02T10:59:48.256Z,9.27
2018-11-02T11:02:23.349Z,9.40
2018-11-02T11:04:52.540Z,9.23
2018-11-02T11:07:22.971Z,9.73
2018-11-02T11:09:52.425Z,9.87
2018-11-02T11:12:25.145Z,10.20
2018-11-02T11:14:54.456Z,11.43
2018-11-02T11:17:23.891Z,9.67
2018-11-02T11:19:53.353Z,10.07
2018-11-02T11:22:22.807Z,10.13
2018-11-02T11:24:52.212Z,10.17
2018-11-02T11:27:22.766Z,9.97
2018-11-02T11:29:52.405Z,9.20
2018-11-02T11:32:23.833Z,8.93
2018-11-02T11:34:53.107Z,9.30
2018-11-02T11:37:23.501Z,9.87
2018-11-02T11:39:53.086Z,10.53
2018-11-02T11:42:22.461Z,9.37
2018-11-02T11:44:52.073Z,9.63
2018-11-02T11:47:23.317Z,9.93
2018-11-02T11:49:52.551Z,13.17
2018-11-02T11:52:24.403Z,13.70
2018-11-02T11:54:53.816Z,11.80
2018-11-02T11:57:23.595Z,12.37
2018-11-02T11:59:53.519Z,10.30
2018-11-02T12:02:22.969Z,9.53
2018-11-02T12:04:52.831Z,9.00
2018-11-02T12:07:23.554Z,8.30
2018-11-02T12:09:52.984Z,8.63
2018-11-02T12:12:23.370Z,9.00
2018-11-02T12:14:53.934Z,8.77
2018-11-02T12:17:23.634Z,7.60
2018-11-02T12:19:52.919Z,9.60
2018-11-02T12:22:22.537Z,10.37
2018-11-02T12:24:52.174Z,11.17
2018-11-02T12:27:21.560Z,9.80
2018-11-02T12:29:51.032Z,9.77
2018-11-02T12:32:21.373Z,10.50
2018-11-02T12:34:50.731Z,12.73
2018-11-02T12:37:20.007Z,9.70
2018-11-02T12:39:50.682Z,9.10
2018-11-02T12:42:20.194Z,8.60
2018-11-02T12:44:49.508Z,8.43
2018-11-02T12:47:19.748Z,7.63
2018-11-02T12:49:49.747Z,8.17
2018-11-02T12:52:18.675Z,7.87
2018-11-02T12:54:48.176Z,7.30
2018-11-02T12:57:17.673Z,7.37
2018-11-02T12:59:46.906Z,7.10
2018-11-02T13:02:16.015Z,7.37
2018-11-02T13:04:46.661Z,6.60
2018-11-02T13:07:15.979Z,6.87
2018-11-02T13:09:45.199Z,6.83
2018-11-02T13:12:15.010Z,5.60
2018-11-02T13:14:45.278Z,5.57
2018-11-02T13:17:14.502Z,6.00
2018-11-02T13:19:43.737Z,5.63
2018-11-02T13:22:13.730Z,5.70
2018-11-02T13:24:42.940Z,5.90
2018-11-02T13:27:13.235Z,6.03
2018-11-02T13:29:42.591Z,6.67
2018-11-02T13:32:12.548Z,7.10
2018-11-02T13:34:41.978Z,6.17
2018-11-02T13:37:11.885Z,10.13
2018-11-02T13:39:40.967Z,6.17
2018-11-02T13:42:10.297Z,5.97
2018-11-02T13:44:39.463Z,6.37
2018-11-02T13:47:08.749Z,6.00
2018-11-02T13:49:37.977Z,6.23
2018-11-02T13:52:08.094Z,5.10
2018-11-02T13:54:37.499Z,5.40
2018-11-02T13:57:07.180Z,7.57
2018-11-02T13:59:36.568Z,5.27
2018-11-02T14:02:06.725Z,6.70
2018-11-02T14:04:35.941Z,9.47
2018-11-02T14:07:05.156Z,5.50
2018-11-02T14:09:34.454Z,5.90
2018-11-02T14:12:04.242Z,5.50
2018-11-02T14:14:33.492Z,6.90
2018-11-02T14:17:02.658Z,5.67
2018-11-02T14:19:31.851Z,6.13
2018-11-02T14:22:01.949Z,6.27
2018-11-02T14:24:31.336Z,6.30
2018-11-02T14:27:01.127Z,6.17
2018-11-02T14:29:30.555Z,5.77
2018-11-02T14:31:59.854Z,7.10
2018-11-02T14:34:29.184Z,6.63
2018-11-02T14:37:00.112Z,6.40
2018-11-02T14:39:29.490Z,6.20
2018-11-02T14:41:58.792Z,5.63
2018-11-02T14:44:28.925Z,6.50
2018-11-02T14:46:58.189Z,6.43
2018-11-02T14:49:28.319Z,6.17
2018-11-02T14:51:57.617Z,6.20
2018-11-02T14:54:27.399Z,6.10
2018-11-02T14:56:56.703Z,6.07
2018-11-02T14:59:26.707Z,5.93
2018-11-02T15:01:56.020Z,6.70
2018-11-02T15:04:25.714Z,6.20
2018-11-02T15:06:56.221Z,7.90
2018-11-02T15:09:25.855Z,6.03
2018-11-02T15:11:55.444Z,6.00
2018-11-02T15:14:26.294Z,5.27
2018-11-02T15:17:03.861Z,7.50
2018-11-02T15:19:33.974Z,6.23
2018-11-02T15:22:03.343Z,6.47
2018-11-02T15:24:32.868Z,6.77
2018-11-02T15:27:02.191Z,6.97
2018-11-02T15:29:31.756Z,6.83
2018-11-02T15:32:01.252Z,7.07
2018-11-02T15:34:30.688Z,6.40
2018-11-02T15:37:00.557Z,7.20
2018-11-02T15:39:29.972Z,6.87
2018-11-02T15:41:59.107Z,8.07
2018-11-02T15:44:28.662Z,7.30
2018-11-02T15:46:58.405Z,7.60
2018-11-02T15:49:28.285Z,6.73
2018-11-02T15:51:57.700Z,6.70
2018-11-02T15:54:26.982Z,7.30
2018-11-02T15:56:56.345Z,7.70
2018-11-02T15:59:25.790Z,6.83
2018-11-02T16:01:55.232Z,8.07
2018-11-02T16:04:25.502Z,7.57
2018-11-02T16:06:54.802Z,8.50
2018-11-02T16:09:24.471Z,10.23
2018-11-02T16:11:54.170Z,7.57
2018-11-02T16:14:23.746Z,10.73
2018-11-02T16:16:53.432Z,14.40
2018-11-02T16:19:22.979Z,12.80
2018-11-02T16:21:52.382Z,14.73
2018-11-02T16:24:22.058Z,16.67
2018-11-02T16:26:51.346Z,16.07
2018-11-02T16:29:21.633Z,17.20
2018-11-02T16:31:51.320Z,14.30
2018-11-02T16:34:20.836Z,12.67
2018-11-02T16:36:50.540Z,12.53
2018-11-02T16:39:20.029Z,9.20
2018-11-02T16:41:49.871Z,10.07
2018-11-02T16:44:19.568Z,10.77
2018-11-02T16:46:48.684Z,10.83
2018-11-02T16:49:18.326Z,9.17
2018-11-02T16:51:47.866Z,12.40
2018-11-02T16:54:17.497Z,8.63
2018-11-02T16:56:47.337Z,8.47
2018-11-02T16:59:17.177Z,8.30
2018-11-02T17:01:46.779Z,9.57
2018-11-02T17:04:16.312Z,8.93
2018-11-02T17:06:45.795Z,9.40
2018-11-02T17:09:15.411Z,13.20
2018-11-02T17:11:45.127Z,11.83
2018-11-02T17:14:15.321Z,12.37
2018-11-02T17:16:44.885Z,12.50
2018-11-02T17:19:14.563Z,14.73
2018-11-02T17:21:44.178Z,12.97
2018-11-02T17:24:14.277Z,13.30
2018-11-02T17:26:45.017Z,15.47
2018-11-02T17:29:14.706Z,21.83
2018-11-02T17:31:43.942Z,20.90
2018-11-02T17:34:13.396Z,24.50
2018-11-02T17:36:43.025Z,17.20
2018-11-02T17:39:12.371Z,14.90
2018-11-02T17:41:41.620Z,14.33
2018-11-02T17:44:10.968Z,18.20
2018-11-02T17:46:40.794Z,15.67
2018-11-02T17:49:10.115Z,19.53
2018-11-02T17:51:39.640Z,20.10
2018-11-02T17:54:09.114Z,19.80
2018-11-02T17:56:38.880Z,19.97
2018-11-02T17:59:08.306Z,18.77
2018-11-02T18:01:37.958Z,14.20
2018-11-02T18:04:07.234Z,13.80
2018-11-02T18:06:36.756Z,13.77
2018-11-02T18:09:08.647Z,19.40
2018-11-02T18:11:38.146Z,15.53
2018-11-02T18:14:07.755Z,18.57
2018-11-02T18:16:38.381Z,36.90
2018-11-02T18:19:08.320Z,603.63
2018-11-02T18:21:38.044Z,459.10
2018-11-02T18:24:07.607Z,376.03
2018-11-02T18:26:37.079Z,253.93
2018-11-02T18:29:06.708Z,158.73
2018-11-02T18:31:37.485Z,156.20
2018-11-02T18:34:06.748Z,106.20
2018-11-02T18:36:36.184Z,58.30
2018-11-02T18:39:11.117Z,47.90
2018-11-02T18:41:40.390Z,35.30
2018-11-02T18:44:10.353Z,24.70
2018-11-02T18:46:40.294Z,26.37
2018-11-02T18:49:09.777Z,23.07
2018-11-02T18:51:39.720Z,20.97
2018-11-02T18:54:09.526Z,24.60
2018-11-02T18:56:38.791Z,21.60
2018-11-02T18:59:09.320Z,19.33
2018-11-02T19:01:39.601Z,19.27
2018-11-02T19:04:08.932Z,17.97
2018-11-02T19:06:38.778Z,18.97
2018-11-02T19:09:09.759Z,16.90
2018-11-02T19:11:39.777Z,17.63
2018-11-02T19:14:09.092Z,17.40
2018-11-02T19:16:38.455Z,16.10
2018-11-02T19:19:08.685Z,16.40
2018-11-02T19:21:38.193Z,15.73
2018-11-02T19:24:08.091Z,14.47
2018-11-02T19:26:39.068Z,15.03
2018-11-02T19:29:08.879Z,33.30
2018-11-02T19:31:38.259Z,39.83
2018-11-02T19:34:08.230Z,58.67
2018-11-02T19:36:37.665Z,23.37
2018-11-02T19:39:08.958Z,25.00
2018-11-02T19:41:38.603Z,25.23
2018-11-02T19:44:08.060Z,22.27
2018-11-02T19:46:38.023Z,23.03
2018-11-02T19:49:08.909Z,23.60
2018-11-02T19:51:39.418Z,21.20
2018-11-02T19:54:08.962Z,18.67
2018-11-02T19:56:38.397Z,17.63
2018-11-02T19:59:07.846Z,22.03
2018-11-02T20:01:37.456Z,18.13
2018-11-02T20:04:06.909Z,21.73
2018-11-02T20:06:36.664Z,23.40
2018-11-02T20:09:09.481Z,22.37
2018-11-02T20:11:38.800Z,20.17
2018-11-02T20:14:09.050Z,24.83
2018-11-02T20:16:38.699Z,17.73
2018-11-02T20:19:08.210Z,18.20
2018-11-02T20:21:37.511Z,17.53
2018-11-02T20:24:07.092Z,19.83
2018-11-02T20:26:36.615Z,22.07
2018-11-02T20:29:06.193Z,22.57
2018-11-02T20:31:35.668Z,24.20
2018-11-02T20:34:06.032Z,24.50
2018-11-02T20:36:36.783Z,20.53
2018-11-02T20:39:10.449Z,21.70
2018-11-02T20:41:39.933Z,19.97
2018-11-02T20:44:09.360Z,23.57
2018-11-02T20:46:40.199Z,21.67
2018-11-02T20:49:09.600Z,17.57
2018-11-02T20:51:39.134Z,17.17
2018-11-02T20:54:08.382Z,17.40
2018-11-02T20:56:37.801Z,17.37
2018-11-02T20:59:07.109Z,16.13
2018-11-02T21:01:37.198Z,20.07
2018-11-02T21:04:06.540Z,17.67
2018-11-02T21:06:36.073Z,16.33
2018-11-02T21:09:07.424Z,16.13
2018-11-02T21:11:37.413Z,15.97
2018-11-02T21:14:06.915Z,16.33
2018-11-02T21:16:36.612Z,21.77
2018-11-02T21:19:06.112Z,20.70
2018-11-02T21:21:35.797Z,20.97
2018-11-02T21:24:05.644Z,20.83
2018-11-02T21:26:35.308Z,20.40
2018-11-02T21:29:04.976Z,19.40
2018-11-02T21:31:34.196Z,20.70
2018-11-02T21:34:04.204Z,21.67
2018-11-02T21:36:34.982Z,22.03
2018-11-02T21:39:05.408Z,22.90
2018-11-02T21:41:34.690Z,24.93
2018-11-02T21:44:03.953Z,20.60
2018-11-02T21:46:33.625Z,17.90
2018-11-02T21:49:02.842Z,16.80
2018-11-02T21:51:32.154Z,15.80
2018-11-02T21:54:01.333Z,14.23
2018-11-02T21:56:30.735Z,18.77
2018-11-02T21:59:00.121Z,15.00
2018-11-02T22:01:30.038Z,14.43
2018-11-02T22:03:59.338Z,13.97
2018-11-02T22:06:28.844Z,14.27
2018-11-02T22:08:58.360Z,13.90
2018-11-02T22:11:28.179Z,12.90
2018-11-02T22:13:57.499Z,13.27
2018-11-02T22:16:26.925Z,13.30
2018-11-02T22:18:56.589Z,13.17
2018-11-02T22:21:25.837Z,13.07
2018-11-02T22:23:55.097Z,12.60
2018-11-02T22:26:24.419Z,13.57
2018-11-02T22:28:53.779Z,14.27
2018-11-02T22:31:23.249Z,15.20
2018-11-02T22:33:53.744Z,14.60
2018-11-02T22:36:23.267Z,15.00
2018-11-02T22:38:52.630Z,17.07
2018-11-02T22:41:21.987Z,14.83
2018-11-02T22:43:51.873Z,17.00
2018-11-02T22:46:21.118Z,13.77
2018-11-02T22:48:50.372Z,15.13
2018-11-02T22:51:20.847Z,14.30
2018-11-02T22:53:50.251Z,13.63
2018-11-02T22:56:19.709Z,14.33
2018-11-02T22:58:49.156Z,14.60
2018-11-02T23:01:23.977Z,15.93
2018-11-02T23:03:53.461Z,14.50
2018-11-02T23:06:22.879Z,12.97
2018-11-02T23:08:53.254Z,14.37
2018-11-02T23:11:22.936Z,12.27
2018-11-02T23:13:52.256Z,12.30
2018-11-02T23:16:21.680Z,11.00
2018-11-02T23:18:51.425Z,11.73
2018-11-02T23:21:20.724Z,10.40
2018-11-02T23:23:50.142Z,10.10
2018-11-02T23:26:23.863Z,10.87
2018-11-02T23:28:53.076Z,12.50
2018-11-02T23:31:22.241Z,10.90
2018-11-02T23:33:51.680Z,11.33
2018-11-02T23:36:20.888Z,10.93
2018-11-02T23:38:50.057Z,10.80
2018-11-02T23:41:20.493Z,10.77
2018-11-02T23:43:49.755Z,10.93
2018-11-02T23:46:19.213Z,10.90
2018-11-02T23:48:53.832Z,10.87
2018-11-02T23:51:27.734Z,11.40
2018-11-02T23:53:57.418Z,11.07
2018-11-02T23:56:27.013Z,10.73
2018-11-02T23:58:56.968Z,11.10
